YLRE

Details ICAO YLRE (LRE)
Name Longreach
Region Australia
Timezone Australia/Brisbane (UTC+10.0)
Plans Departing 122
Arriving 143
Stats Elevation 626 ft / 191 m (AMSL)
Location -23.432000° 144.278000°
Runways 1
Magnetic Variation 7.446° E
Sunrise 2019-12-08 19:30:26 UTC / 2019-12-09 05:30:26 Local
Sunset 2019-12-09 09:02:11 UTC / 2019-12-09 19:02:11 Local
Advertisement - Login to hide

Runways

ID Width Length Bearing (true/mag) Surface Threshold Overrun Markings Lighting
04 98 ft / 30 m 6,339 ft / 1,932 m 46.50° / 39.06° ASPHALT 0 ft / 0 m 0 ft / 0 m PREC-APP EDGE THRESHOLD
22 98 ft / 30 m 6,339 ft / 1,932 m 226.50° / 219.05° ASPHALT 0 ft / 0 m 0 ft / 0 m PREC-APP EDGE THRESHOLD

Map

Weather


0- 5 10 15 20 25 30 35+ Temperature / °C

Clouds and Precipitation
Forecast for 2019-12-08 18:00 UTC. Updated 3 hours ago

Ground ~20,000 ft ~40,000 ft Winds

METAR

YLRE 081800Z AUTO 01014KT 9999 // NCD 30/10 Q1012

TAF

Not found
Warning: Do not use this data for real-world aviation or navigation. No guarantee of current accuracy is given.